Time;durP1;ratioP1;P1;durP2;ratioP2;P2;SDS_P1;SDS_P2;PMS_P1;PMS_P2;Temp;Humidity;BMP_temperature;BMP_pressure;BME280_temperature;BME280_humidity;BME280_pressure;Samples;Min_cycle;Max_cycle;Signal;HPM_P1;HPM_P2
2023/10/24 00:02:40;;;;;;;12.55;7.32;;;;;;;20.72;46.31;95273.88;6202012;28;110427;-63
2023/10/24 00:05:43;;;;;;;14.55;8.13;;;;;;;20.53;46.37;95276.56;6180747;28;109171;-63
2023/10/24 00:08:47;;;;;;;15.23;7.40;;;;;;;20.42;46.75;95285.75;6196777;28;109994;-63
2023/10/24 00:11:50;;;;;;;15.25;8.10;;;;;;;20.27;46.99;95274.28;6208062;27;109407;-63
2023/10/24 00:14:56;;;;;;;12.40;6.82;;;;;;;20.19;47.12;95274.91;6204706;28;109013;-64
2023/10/24 00:17:59;;;;;;;12.35;7.20;;;;;;;20.16;47.21;95272.78;6199773;28;109077;-64
2023/10/24 00:21:02;;;;;;;13.23;7.15;;;;;;;20.02;47.33;95271.94;6198443;28;109086;-64
2023/10/24 00:24:05;;;;;;;14.10;7.50;;;;;;;19.90;47.45;95272.38;6204432;28;109289;-63
2023/10/24 00:27:09;;;;;;;15.23;7.30;;;;;;;19.86;47.32;95267.91;6195186;28;109148;-65
2023/10/24 00:30:14;;;;;;;16.07;7.40;;;;;;;19.92;47.62;95272.06;6202442;28;109221;-64
2023/10/24 00:33:17;;;;;;;16.70;7.00;;;;;;;19.82;47.54;95265.00;6189833;28;109020;-65
2023/10/24 00:36:20;;;;;;;13.23;6.80;;;;;;;19.83;47.54;95268.50;6175496;28;108959;-65
2023/10/24 00:39:23;;;;;;;13.20;7.80;;;;;;;19.89;47.46;95264.69;6189600;28;110142;-66
2023/10/24 00:42:26;;;;;;;12.70;7.30;;;;;;;19.72;47.56;95262.50;6161776;28;109678;-65
2023/10/24 00:45:31;;;;;;;13.93;7.10;;;;;;;19.88;47.38;95265.75;6190828;28;108756;-65
2023/10/24 00:48:34;;;;;;;14.47;7.40;;;;;;;19.84;47.36;95264.75;6183237;28;109134;-66
2023/10/24 00:51:38;;;;;;;12.80;6.55;;;;;;;19.93;47.02;95261.16;6188645;28;108962;-66
2023/10/24 00:54:42;;;;;;;13.10;7.00;;;;;;;20.02;47.05;95263.97;6202094;28;111720;-65
2023/10/24 00:57:45;;;;;;;12.80;6.70;;;;;;;20.07;46.61;95266.56;6191558;28;109113;-65
2023/10/24 01:00:50;;;;;;;13.48;7.28;;;;;;;20.01;46.86;95263.19;6186987;28;109170;-65
2023/10/24 01:03:56;;;;;;;13.77;7.32;;;;;;;20.01;46.78;95265.06;6179719;28;109077;-66
2023/10/24 01:06:59;;;;;;;13.82;6.82;;;;;;;19.90;46.99;95258.28;6190198;28;108962;-66
2023/10/24 01:10:03;;;;;;;13.47;7.10;;;;;;;20.01;46.66;95257.88;6200925;28;110160;-66
2023/10/24 01:13:06;;;;;;;15.32;7.00;;;;;;;19.96;46.59;95265.09;6188322;28;108936;-66
2023/10/24 01:16:11;;;;;;;12.35;6.50;;;;;;;19.80;47.08;95253.09;6166420;28;110253;-65
2023/10/24 01:19:14;;;;;;;14.50;6.90;;;;;;;19.81;46.82;95267.97;6187009;28;109918;-66
2023/10/24 01:22:18;;;;;;;15.53;7.87;;;;;;;19.73;46.84;95269.41;6195650;28;109050;-65
2023/10/24 01:25:22;;;;;;;15.20;7.53;;;;;;;19.58;47.18;95261.63;6209367;28;109360;-65
2023/10/24 01:28:26;;;;;;;14.43;7.40;;;;;;;19.58;47.28;95261.63;6179304;28;108958;-65
2023/10/24 01:31:29;;;;;;;14.07;8.00;;;;;;;19.53;47.29;95265.13;6196140;28;108811;-65
2023/10/24 01:34:33;;;;;;;13.00;7.90;;;;;;;19.50;47.06;95267.56;6165313;28;109844;-65
2023/10/24 01:37:37;;;;;;;16.92;7.90;;;;;;;19.45;47.17;95264.94;6178794;28;111511;-67
2023/10/24 01:40:40;;;;;;;15.90;7.90;;;;;;;19.31;47.66;95260.28;6181362;28;110303;-68
2023/10/24 01:43:44;;;;;;;17.38;8.10;;;;;;;19.43;47.25;95249.31;6177781;28;108940;-67
2023/10/24 01:46:47;;;;;;;14.57;8.23;;;;;;;19.52;47.06;95252.94;6174752;28;109024;-67
2023/10/24 01:49:50;;;;;;;13.40;8.10;;;;;;;19.63;46.78;95256.22;6178327;28;109580;-67
2023/10/24 01:52:56;;;;;;;14.07;7.30;;;;;;;19.69;46.59;95258.56;6191523;28;109160;-67
2023/10/24 01:55:59;;;;;;;14.57;8.30;;;;;;;19.69;46.81;95258.56;6203513;28;109177;-67
2023/10/24 01:59:04;;;;;;;13.85;6.97;;;;;;;19.57;46.77;95258.16;6187979;28;108977;-67
2023/10/24 02:02:07;;;;;;;16.02;8.30;;;;;;;19.48;47.15;95251.91;6174441;28;110125;-68
2023/10/24 02:05:12;;;;;;;13.13;7.22;;;;;;;19.48;46.92;95254.56;6162112;28;109027;-66
2023/10/24 02:08:16;;;;;;;13.68;6.85;;;;;;;19.53;46.73;95259.03;6188816;28;109466;-67
2023/10/24 02:11:19;;;;;;;11.70;6.70;;;;;;;19.44;47.20;95248.22;6199390;28;110600;-67
2023/10/24 02:14:22;;;;;;;12.57;6.38;;;;;;;19.47;46.84;95250.31;6178190;28;109406;-67
2023/10/24 02:17:25;;;;;;;12.00;6.05;;;;;;;19.50;46.90;95249.78;6187938;28;109598;-68
2023/10/24 02:20:28;;;;;;;9.70;5.30;;;;;;;19.50;46.75;95247.13;6188846;28;109124;-67
2023/10/24 02:23:33;;;;;;;11.00;5.10;;;;;;;19.36;47.05;95248.84;6187407;28;109089;-67
2023/10/24 02:26:36;;;;;;;12.25;5.90;;;;;;;19.26;47.06;95247.06;6210507;28;108940;-66
2023/10/24 02:29:40;;;;;;;13.00;5.50;;;;;;;19.26;47.17;95251.59;6162383;28;109035;-66
2023/10/24 02:32:43;;;;;;;13.97;5.90;;;;;;;19.35;46.87;95256.00;6194461;28;108960;-67
2023/10/24 02:35:46;;;;;;;14.75;6.88;;;;;;;19.28;46.94;95254.75;6200854;28;109268;-67
2023/10/24 02:38:51;;;;;;;11.20;6.40;;;;;;;19.20;46.96;95244.78;6193358;28;109452;-67
2023/10/24 02:41:54;;;;;;;14.98;6.13;;;;;;;19.17;47.18;95250.66;6179987;28;111672;-70
2023/10/24 02:44:57;;;;;;;11.10;6.00;;;;;;;19.24;46.91;95251.88;6211077;28;109203;-66
2023/10/24 02:48:00;;;;;;;13.83;7.10;;;;;;;19.20;47.36;95261.47;6187987;28;109525;-69
2023/10/24 02:51:03;;;;;;;12.37;7.03;;;;;;;19.22;46.92;95261.19;6185974;28;109258;-69
2023/10/24 02:54:08;;;;;;;15.68;7.35;;;;;;;19.34;46.65;95266.91;6175266;28;110055;-69
2023/10/24 02:57:11;;;;;;;17.88;12.85;;;;;;;19.24;46.84;95269.66;6161442;28;109203;-70
2023/10/24 03:00:16;;;;;;;29.92;22.17;;;;;;;19.18;47.04;95270.78;6188501;28;110171;-70
2023/10/24 03:03:19;;;;;;;36.65;30.20;;;;;;;19.06;47.14;95271.97;6192363;28;109127;-70
2023/10/24 03:06:22;;;;;;;28.67;25.65;;;;;;;19.14;47.05;95276.63;6204503;28;109052;-70
2023/10/24 03:09:26;;;;;;;24.80;20.27;;;;;;;19.34;46.61;95272.22;6165973;28;109220;-70
2023/10/24 03:12:30;;;;;;;28.65;21.90;;;;;;;19.50;46.37;95280.84;6183383;28;109022;-70
2023/10/24 03:15:34;;;;;;;27.15;23.02;;;;;;;19.64;46.10;95282.50;6203943;28;108939;-71
2023/10/24 03:18:37;;;;;;;27.47;23.53;;;;;;;19.71;46.23;95293.56;6171105;28;109488;-71
2023/10/24 03:21:40;;;;;;;25.08;22.45;;;;;;;19.78;46.18;95298.53;6153948;28;109755;-71
2023/10/24 03:24:45;;;;;;;25.30;20.73;;;;;;;19.83;46.17;95295.03;6180216;28;109255;-68
2023/10/24 03:27:48;;;;;;;32.77;26.77;;;;;;;19.92;46.00;95302.06;6183569;28;109348;-68
2023/10/24 03:31:01;;;;;;;35.35;30.48;;;;;;;19.88;46.14;95294.97;6198688;28;108950;-66
2023/10/24 03:34:04;;;;;;;31.10;26.15;;;;;;;19.87;45.98;95307.47;6170159;28;110177;-67
2023/10/24 03:37:07;;;;;;;28.90;23.47;;;;;;;19.84;46.08;95308.03;6171406;28;109141;-70
2023/10/24 03:40:12;;;;;;;38.63;33.58;;;;;;;20.08;45.62;95308.00;6187034;28;109390;-69
2023/10/24 03:43:15;;;;;;;39.13;35.07;;;;;;;20.23;45.29;95297.16;6173011;28;109376;-68
2023/10/24 03:46:18;;;;;;;43.65;39.25;;;;;;;20.32;45.42;95298.09;6184283;28;109254;-70
2023/10/24 03:49:22;;;;;;;52.45;47.35;;;;;;;20.35;45.83;95306.59;6199847;28;109681;-71
2023/10/24 03:52:25;;;;;;;36.20;32.50;;;;;;;20.50;45.74;95309.00;6183362;28;109360;-71
2023/10/24 03:55:29;;;;;;;23.15;20.67;;;;;;;20.57;45.31;95309.47;6173981;28;108941;-70
2023/10/24 03:58:32;;;;;;;24.60;22.10;;;;;;;20.52;45.13;95306.88;6178491;28;109038;-69
2023/10/24 04:01:36;;;;;;;23.77;16.90;;;;;;;20.49;45.11;95318.06;6171884;28;109040;-69
2023/10/24 04:04:39;;;;;;;22.83;15.30;;;;;;;20.45;44.93;95317.88;6166398;28;109301;-70
2023/10/24 04:07:42;;;;;;;18.73;15.00;;;;;;;20.58;46.95;95311.81;6173519;28;109965;-68
2023/10/24 04:10:47;;;;;;;25.37;16.00;;;;;;;20.60;45.86;95319.50;6211917;28;109078;-68
2023/10/24 04:13:50;;;;;;;19.65;14.57;;;;;;;20.42;45.41;95312.34;6185670;28;109023;-71
2023/10/24 04:16:53;;;;;;;20.70;13.87;;;;;;;20.55;46.44;95316.94;6183010;28;110369;-68
2023/10/24 04:19:56;;;;;;;19.80;14.25;;;;;;;20.71;46.38;95317.50;6183668;28;109251;-71
2023/10/24 04:23:03;;;;;;;20.05;16.55;;;;;;;20.52;45.24;95318.31;6187956;28;109021;-69
2023/10/24 04:26:08;;;;;;;14.80;11.30;;;;;;;20.35;45.42;95317.22;6187765;28;109250;-70
2023/10/24 04:29:12;;;;;;;14.93;9.40;;;;;;;20.40;45.00;95314.50;6191881;28;109164;-70
2023/10/24 04:32:15;;;;;;;15.00;8.70;;;;;;;20.45;44.99;95327.72;6213551;28;109479;-70
2023/10/24 04:35:18;;;;;;;15.63;10.90;;;;;;;20.48;44.89;95330.56;6189735;28;109043;-69
2023/10/24 04:38:21;;;;;;;16.90;10.02;;;;;;;20.51;44.69;95324.72;6188195;28;108735;-70
2023/10/24 04:41:26;;;;;;;12.27;8.23;;;;;;;20.53;44.84;95322.53;6177332;28;109165;-70
2023/10/24 04:44:29;;;;;;;13.50;9.60;;;;;;;20.51;44.88;95329.22;6188212;28;110074;-70
2023/10/24 04:47:32;;;;;;;14.20;8.70;;;;;;;20.50;44.56;95335.59;6187688;28;109334;-70
2023/10/24 04:50:38;;;;;;;13.15;8.77;;;;;;;20.52;44.39;95336.13;6183081;28;108788;-69
2023/10/24 04:53:41;;;;;;;16.42;10.80;;;;;;;20.52;44.38;95338.78;6182153;28;109220;-70
2023/10/24 04:56:45;;;;;;;14.67;11.00;;;;;;;20.37;45.04;95344.31;6187719;28;109223;-68
2023/10/24 04:59:48;;;;;;;17.27;11.75;;;;;;;20.43;44.81;95351.13;6205011;28;109418;-69
2023/10/24 05:02:52;;;;;;;18.63;12.63;;;;;;;20.47;44.79;95339.63;6201811;28;109058;-69
2023/10/24 05:05:56;;;;;;;17.73;12.00;;;;;;;20.49;44.63;95356.06;6212083;28;108995;-69
2023/10/24 05:08:59;;;;;;;19.05;11.75;;;;;;;20.48;44.46;95359.03;6201760;28;109539;-69
2023/10/24 05:12:05;;;;;;;19.77;12.95;;;;;;;20.49;44.47;95368.56;6187090;28;109056;-69
2023/10/24 05:15:09;;;;;;;21.93;12.77;;;;;;;20.48;44.26;95369.66;6176870;28;109134;-66
2023/10/24 05:18:13;;;;;;;18.13;11.93;;;;;;;20.51;44.32;95374.44;6187331;28;110021;-69
2023/10/24 05:21:16;;;;;;;16.30;11.35;;;;;;;20.51;44.57;95374.44;6187265;28;109256;-70
2023/10/24 05:24:19;;;;;;;15.87;10.93;;;;;;;20.52;44.51;95383.97;6187163;28;109031;-70
2023/10/24 05:27:23;;;;;;;17.60;11.30;;;;;;;20.53;44.53;95389.00;6175729;28;109201;-70
2023/10/24 05:30:27;;;;;;;18.08;10.80;;;;;;;20.46;44.73;95383.25;6186834;28;109084;-66
2023/10/24 05:33:30;;;;;;;17.70;10.73;;;;;;;20.35;44.92;95391.66;6191982;28;109449;-71
2023/10/24 05:36:35;;;;;;;15.93;10.48;;;;;;;20.43;44.73;95383.81;6201814;28;109175;-69
2023/10/24 05:39:39;;;;;;;15.38;10.38;;;;;;;20.49;44.75;95392.50;6196461;28;109594;-70
2023/10/24 05:42:44;;;;;;;16.42;10.10;;;;;;;20.49;44.51;95393.28;6186494;28;109014;-68
2023/10/24 05:45:47;;;;;;;14.23;9.50;;;;;;;20.00;45.30;95396.28;6186535;28;109551;-68
2023/10/24 05:48:50;;;;;;;17.40;10.60;;;;;;;19.70;45.86;95408.03;6175148;28;108973;-67
2023/10/24 05:51:53;;;;;;;17.88;10.23;;;;;;;19.49;46.76;95406.63;6186548;28;109275;-71
2023/10/24 05:54:56;;;;;;;17.10;10.50;;;;;;;19.83;45.76;95404.72;6186787;28;110118;-71
2023/10/24 05:58:01;;;;;;;16.03;10.53;;;;;;;19.59;46.50;95394.06;6186320;28;109068;-70
2023/10/24 06:01:04;;;;;;;18.25;10.35;;;;;;;19.58;46.36;95384.50;6200206;28;109608;-70
2023/10/24 06:04:07;;;;;;;15.10;10.23;;;;;;;19.79;46.16;95394.91;6210544;28;108967;-71
2023/10/24 06:07:10;;;;;;;14.93;10.38;;;;;;;20.15;45.43;95390.78;6210786;28;109420;-70
2023/10/24 06:10:13;;;;;;;14.88;8.98;;;;;;;20.42;44.61;95389.41;6205648;28;109094;-70
2023/10/24 06:13:18;;;;;;;17.55;9.73;;;;;;;20.57;44.31;95395.31;6204418;28;109078;-71
2023/10/24 06:16:21;;;;;;;17.73;9.90;;;;;;;20.69;44.37;95388.78;6186098;28;109291;-70
2023/10/24 06:19:24;;;;;;;14.80;9.70;;;;;;;20.75;44.23;95391.09;6185896;28;109187;-72
2023/10/24 06:22:28;;;;;;;18.10;10.70;;;;;;;20.85;44.13;95395.47;6175792;28;110013;-72
2023/10/24 06:25:36;;;;;;;17.70;11.48;;;;;;;20.92;44.13;95387.91;6204017;28;109379;-68
2023/10/24 06:28:41;;;;;;;17.00;12.10;;;;;;;20.99;44.08;95392.84;6193291;28;108985;-62
2023/10/24 06:31:44;;;;;;;17.67;12.13;;;;;;;21.00;43.97;95386.44;6210410;28;109175;-62
2023/10/24 06:34:47;;;;;;;17.33;11.65;;;;;;;21.05;44.47;95389.09;6187774;28;110284;-62
2023/10/24 06:37:51;;;;;;;22.05;14.95;;;;;;;21.12;43.88;95389.50;6185998;28;110093;-62
2023/10/24 06:40:55;;;;;;;22.07;15.77;;;;;;;21.14;43.95;95390.78;6185441;28;108996;-61
2023/10/24 06:44:00;;;;;;;24.45;18.13;;;;;;;21.20;44.04;95396.81;6183468;28;109063;-63
2023/10/24 06:47:03;;;;;;;26.43;20.73;;;;;;;21.23;43.92;95385.59;6178615;28;109375;-62
2023/10/24 06:50:08;;;;;;;24.58;17.30;;;;;;;21.12;44.41;95392.16;6185815;28;111708;-62
2023/10/24 06:53:13;;;;;;;21.20;14.83;;;;;;;21.14;44.38;95382.78;6185305;28;109395;-61
2023/10/24 06:56:16;;;;;;;23.73;19.10;;;;;;;21.22;44.05;95392.00;6175721;28;109201;-63
2023/10/24 06:59:25;;;;;;;23.02;20.52;;;;;;;21.30;44.04;95393.19;6185065;28;109115;-62
2023/10/24 07:02:28;;;;;;;22.87;17.97;;;;;;;21.37;44.17;95389.09;6185140;28;109283;-62
2023/10/24 07:05:32;;;;;;;25.35;20.35;;;;;;;21.40;43.68;95387.72;6185144;28;109259;-61
2023/10/24 07:08:35;;;;;;;24.40;18.45;;;;;;;21.44;43.65;95381.50;6174055;28;109267;-62
2023/10/24 07:11:38;;;;;;;23.60;18.92;;;;;;;21.50;43.48;95377.66;6185304;28;109923;-63
2023/10/24 07:14:43;;;;;;;21.70;19.40;;;;;;;21.62;43.47;95387.84;6185116;28;109223;-61
2023/10/24 07:17:46;;;;;;;22.40;18.33;;;;;;;21.61;43.74;95374.81;6184384;28;109671;-61
2023/10/24 07:20:49;;;;;;;22.75;17.83;;;;;;;21.74;43.41;95374.84;6192330;28;110141;-61
2023/10/24 07:23:54;;;;;;;23.50;17.15;;;;;;;21.50;44.23;95371.53;6209353;28;109496;-62
2023/10/24 07:26:57;;;;;;;23.23;17.10;;;;;;;21.46;44.42;95370.56;6209155;28;109215;-65
2023/10/24 07:30:02;;;;;;;21.42;16.40;;;;;;;21.52;44.10;95359.53;6204461;28;109262;-65
2023/10/24 07:33:05;;;;;;;20.73;17.08;;;;;;;21.55;44.09;95360.81;6206113;28;109114;-65
2023/10/24 07:36:09;;;;;;;18.10;13.17;;;;;;;21.54;43.91;95350.47;6209207;28;108789;-65
2023/10/24 07:39:14;;;;;;;16.53;13.40;;;;;;;21.59;43.66;95355.69;6208396;28;109361;-66
2023/10/24 07:42:17;;;;;;;18.88;13.40;;;;;;;21.63;44.15;95359.34;6177810;28;109785;-66
2023/10/24 07:45:22;;;;;;;18.17;13.95;;;;;;;21.67;43.97;95357.66;6201906;28;109508;-66
2023/10/24 07:48:25;;;;;;;17.98;13.93;;;;;;;21.71;43.81;95353.34;6203607;28;109092;-62
2023/10/24 07:51:31;;;;;;;16.67;14.20;;;;;;;21.79;43.41;95344.66;6210772;28;109169;-61
2023/10/24 07:54:35;;;;;;;18.65;15.70;;;;;;;21.84;43.69;95347.22;6203437;28;109875;-62
2023/10/24 07:57:38;;;;;;;19.57;17.47;;;;;;;21.83;43.63;95344.88;6213922;28;109304;-62
2023/10/24 08:00:43;;;;;;;18.10;15.30;;;;;;;21.84;43.30;95346.44;6213460;28;109445;-62
2023/10/24 08:03:46;;;;;;;19.10;15.10;;;;;;;21.86;43.62;95331.75;6209082;28;110254;-63
2023/10/24 08:06:49;;;;;;;15.75;14.05;;;;;;;21.88;43.59;95331.47;6207539;28;109686;-62
2023/10/24 08:09:52;;;;;;;17.20;14.02;;;;;;;21.93;43.17;95340.13;6213351;28;109169;-62
2023/10/24 08:12:55;;;;;;;18.05;13.70;;;;;;;21.98;43.57;95333.91;6213373;28;109372;-62
2023/10/24 08:15:59;;;;;;;17.00;14.00;;;;;;;22.00;43.17;95337.84;6202990;28;112012;-64
2023/10/24 08:19:03;;;;;;;16.83;14.70;;;;;;;22.02;43.63;95338.38;6198252;28;109039;-63
2023/10/24 08:22:06;;;;;;;18.60;14.73;;;;;;;22.06;43.11;95333.22;6213169;28;109733;-62
2023/10/24 08:25:09;;;;;;;18.02;15.30;;;;;;;22.08;43.47;95331.84;6212809;28;109123;-61
2023/10/24 08:28:13;;;;;;;18.67;14.60;;;;;;;22.10;43.57;95331.53;6202027;28;110799;-62
2023/10/24 08:31:17;;;;;;;17.88;15.98;;;;;;;22.09;43.32;95328.09;6195101;28;109125;-62
2023/10/24 08:34:20;;;;;;;17.52;15.02;;;;;;;22.07;43.38;95321.47;6188049;28;109198;-61
2023/10/24 08:37:23;;;;;;;16.70;14.50;;;;;;;22.10;43.03;95324.34;6188102;28;109072;-62
2023/10/24 08:40:27;;;;;;;18.38;15.38;;;;;;;22.11;43.35;95314.47;6177917;28;110369;-62
2023/10/24 08:43:30;;;;;;;16.00;14.30;;;;;;;22.11;43.20;95306.47;6187999;28;109476;-63
2023/10/24 08:46:35;;;;;;;17.05;13.75;;;;;;;22.13;43.00;95300.84;6187882;28;109368;-62
2023/10/24 08:49:39;;;;;;;13.93;12.43;;;;;;;22.15;43.04;95301.31;6179413;28;109586;-65
2023/10/24 08:52:46;;;;;;;16.00;13.52;;;;;;;22.17;43.17;95291.94;6187139;28;109054;-67
2023/10/24 08:55:51;;;;;;;14.33;12.10;;;;;;;22.16;43.22;95292.22;6201477;28;109091;-67
2023/10/24 08:58:58;;;;;;;15.00;12.30;;;;;;;22.14;43.23;95291.75;6212478;28;109091;-66
2023/10/24 09:02:03;;;;;;;14.32;11.45;;;;;;;22.13;42.92;95298.16;6201547;28;108992;-66
2023/10/24 09:05:09;;;;;;;13.93;11.30;;;;;;;22.10;42.80;95281.69;6212175;28;109235;-66
2023/10/24 09:08:13;;;;;;;13.38;11.43;;;;;;;22.11;43.31;95272.59;6212809;28;110222;-71
2023/10/24 09:11:19;;;;;;;13.27;10.40;;;;;;;22.11;43.16;95269.94;6196173;28;109361;-67
2023/10/24 09:14:22;;;;;;;13.37;10.00;;;;;;;22.11;43.07;95266.47;6177150;28;109258;-67
2023/10/24 09:17:27;;;;;;;13.52;10.30;;;;;;;22.11;42.72;95261.94;6163070;28;108996;-66
2023/10/24 09:20:31;;;;;;;12.35;9.60;;;;;;;22.08;42.98;95257.22;6196182;28;109280;-67
2023/10/24 09:23:35;;;;;;;13.02;9.60;;;;;;;22.08;43.07;95257.22;6157223;28;109061;-66
2023/10/24 09:26:38;;;;;;;12.00;9.85;;;;;;;22.09;43.21;95253.47;6175256;28;109068;-67
2023/10/24 09:29:42;;;;;;;14.43;9.80;;;;;;;22.10;43.35;95241.72;6187390;28;109054;-67
2023/10/24 09:32:47;;;;;;;11.35;9.30;;;;;;;22.12;43.37;95249.41;6187156;28;108986;-67
2023/10/24 09:35:50;;;;;;;13.40;9.70;;;;;;;22.13;43.13;95253.66;6177180;28;109683;-67
2023/10/24 09:39:14;;;;;;;12.13;9.57;;;;;;;22.15;43.33;95246.13;6187400;28;109094;-67
2023/10/24 09:42:19;;;;;;;11.73;9.73;;;;;;;22.18;43.20;95245.56;6187086;28;109216;-67
2023/10/24 09:45:23;;;;;;;11.00;9.80;;;;;;;22.22;43.36;95237.75;6187750;28;109960;-71
2023/10/24 09:48:30;;;;;;;13.55;10.68;;;;;;;22.23;42.88;95232.09;6177669;28;109615;-67
2023/10/24 09:51:35;;;;;;;12.88;9.75;;;;;;;22.27;43.10;95237.63;6186854;28;108925;-67
2023/10/24 09:54:40;;;;;;;13.00;9.40;;;;;;;22.28;43.20;95237.31;6186624;28;110295;-67
2023/10/24 09:57:48;;;;;;;11.98;8.57;;;;;;;22.30;42.88;95239.66;6156033;28;109042;-63
2023/10/24 10:00:52;;;;;;;11.55;8.68;;;;;;;22.31;42.76;95223.38;6178769;28;112045;-62
2023/10/24 10:03:58;;;;;;;12.35;8.85;;;;;;;22.33;42.46;95231.84;6211513;28;110097;-62
2023/10/24 10:07:02;;;;;;;10.20;8.40;;;;;;;22.35;42.83;95219.03;6211132;28;109028;-62
2023/10/24 10:10:12;;;;;;;10.73;8.45;;;;;;;22.37;42.91;95216.84;6200619;28;109203;-61
2023/10/24 10:13:21;;;;;;;10.82;8.57;;;;;;;22.38;42.73;95212.31;6211443;28;109780;-61
2023/10/24 10:16:36;;;;;;;10.90;8.20;;;;;;;22.38;42.53;95212.31;6197674;28;109157;-62
2023/10/24 10:20:00;;;;;;;10.68;7.65;;;;;;;22.39;42.61;95208.53;6186258;28;109315;-62
2023/10/24 10:23:20;;;;;;;10.80;8.38;;;;;;;22.39;42.48;95203.22;6156546;28;108985;-61
2023/10/24 10:26:27;;;;;;;10.85;8.30;;;;;;;22.39;42.94;95193.31;6173738;28;109053;-62
2023/10/24 10:29:45;;;;;;;10.27;7.80;;;;;;;22.38;42.71;95185.63;6186486;28;110184;-62
2023/10/24 10:32:56;;;;;;;11.25;7.55;;;;;;;22.38;42.67;95186.41;6199186;28;109220;-62
2023/10/24 10:36:10;;;;;;;12.50;7.80;;;;;;;22.39;43.22;95187.22;6210916;28;109317;-62
2023/10/24 10:39:13;;;;;;;9.87;8.03;;;;;;;22.38;42.85;95182.97;6210831;28;109005;-62
2023/10/24 10:42:47;;;;;;;9.07;7.80;;;;;;;22.39;42.92;95176.53;6191395;28;110051;-63
2023/10/24 10:45:50;;;;;;;9.52;7.20;;;;;;;22.38;43.13;95178.44;6187250;28;110093;-63
2023/10/24 10:48:56;;;;;;;8.43;7.07;;;;;;;22.37;42.80;95170.72;6199205;28;109149;-62
2023/10/24 10:52:01;;;;;;;9.10;7.40;;;;;;;22.36;43.21;95161.94;6186268;28;110052;-62
2023/10/24 10:55:27;;;;;;;8.48;6.75;;;;;;;22.37;43.05;95155.53;6174815;28;109065;-62
2023/10/24 10:58:42;;;;;;;10.90;7.50;;;;;;;22.35;42.95;95143.59;6185437;28;109197;-62
2023/10/24 11:01:55;;;;;;;9.23;6.70;;;;;;;22.36;42.90;95139.84;6185573;28;109117;-61
2023/10/24 11:04:58;;;;;;;11.55;7.72;;;;;;;22.35;43.32;95136.38;6185504;28;109045;-62
2023/10/24 11:08:06;;;;;;;9.80;6.90;;;;;;;22.36;43.35;95129.16;6175465;28;109000;-67
2023/10/24 11:11:10;;;;;;;9.60;7.25;;;;;;;22.35;43.36;95124.94;6185354;28;109075;-66
2023/10/24 11:14:16;;;;;;;9.93;7.00;;;;;;;22.35;43.13;95111.59;6185528;28;110346;-66
2023/10/24 11:17:20;;;;;;;11.32;7.47;;;;;;;22.32;43.15;95110.31;6178474;28;109192;-66
2023/10/24 11:20:24;;;;;;;10.90;7.07;;;;;;;22.34;43.19;95115.31;6184683;28;110240;-66
2023/10/24 11:23:29;;;;;;;8.23;6.40;;;;;;;22.34;42.71;95099.31;6209966;28;109161;-67
2023/10/24 11:26:32;;;;;;;10.00;6.53;;;;;;;22.32;42.89;95096.97;6209229;28;109084;-68
2023/10/24 11:29:36;;;;;;;9.15;6.90;;;;;;;22.33;43.07;95085.22;6198374;28;109133;-67
2023/10/24 11:32:39;;;;;;;11.18;7.60;;;;;;;22.32;42.95;95082.84;6190529;28;109875;-67
2023/10/24 11:35:42;;;;;;;8.85;6.50;;;;;;;22.33;42.65;95084.44;6185554;28;110976;-68
2023/10/24 11:38:47;;;;;;;9.15;6.15;;;;;;;22.33;42.99;95076.44;6185205;28;109082;-66
2023/10/24 11:41:50;;;;;;;8.50;6.27;;;;;;;22.33;43.28;95079.88;6186473;28;109677;-67
2023/10/24 11:44:54;;;;;;;9.07;6.00;;;;;;;22.31;43.21;95076.75;6209720;28;109407;-67
2023/10/24 11:47:57;;;;;;;9.50;6.40;;;;;;;22.30;42.78;95066.38;6188619;28;109712;-66
2023/10/24 11:51:02;;;;;;;7.88;5.93;;;;;;;22.31;43.17;95075.94;6180375;28;109159;-69
2023/10/24 11:54:08;;;;;;;9.35;6.40;;;;;;;22.30;42.97;95066.38;6179869;28;109308;-67
2023/10/24 11:57:11;;;;;;;8.60;5.90;;;;;;;22.29;42.96;95054.16;6184845;28;108746;-66
2023/10/24 12:00:17;;;;;;;8.30;5.80;;;;;;;22.30;42.81;95055.72;6184894;28;109179;-67
2023/10/24 12:03:20;;;;;;;7.30;5.80;;;;;;;22.28;43.05;95057.91;6197030;28;109383;-67
2023/10/24 12:06:26;;;;;;;9.77;5.40;;;;;;;22.27;42.87;95043.78;6209682;28;110022;-69
2023/10/24 12:09:32;;;;;;;8.75;5.40;;;;;;;22.28;42.83;95040.03;6209503;28;109206;-67
2023/10/24 12:12:36;;;;;;;9.27;5.17;;;;;;;22.28;42.85;95040.03;6209420;28;109205;-67
2023/10/24 12:15:39;;;;;;;8.20;5.90;;;;;;;22.27;42.59;95043.78;6198732;28;108960;-65
2023/10/24 12:18:43;;;;;;;8.50;5.50;;;;;;;22.26;42.95;95041.44;6200171;28;109443;-62
2023/10/24 12:21:47;;;;;;;8.23;5.30;;;;;;;22.27;42.94;95033.13;6184349;28;109004;-62
2023/10/24 12:24:51;;;;;;;7.20;4.80;;;;;;;22.26;42.43;95030.78;6184281;28;110100;-63
2023/10/24 12:27:54;;;;;;;7.93;5.00;;;;;;;22.24;42.54;95025.75;6200189;28;109693;-62
2023/10/24 12:30:57;;;;;;;8.33;5.17;;;;;;;22.26;42.99;95028.09;6213118;28;110060;-62
2023/10/24 12:34:01;;;;;;;7.35;4.75;;;;;;;22.26;42.82;95025.44;6213315;28;109097;-62
2023/10/24 12:37:04;;;;;;;7.90;4.80;;;;;;;22.26;42.67;95025.44;6202306;28;109082;-62
2023/10/24 12:40:10;;;;;;;7.45;4.22;;;;;;;22.24;42.84;95020.41;6213141;28;110560;-61
2023/10/24 12:43:13;;;;;;;7.63;4.95;;;;;;;22.25;43.03;95022.00;6212445;28;109411;-61
2023/10/24 12:46:16;;;;;;;6.63;4.10;;;;;;;22.25;42.36;95021.22;6209247;28;109219;-62
2023/10/24 12:49:19;;;;;;;8.93;4.37;;;;;;;22.21;42.66;95017.59;6178346;28;109542;-61
2023/10/24 12:52:22;;;;;;;9.70;4.15;;;;;;;22.21;42.62;95013.03;6195173;28;109025;-61
2023/10/24 12:55:27;;;;;;;5.75;3.60;;;;;;;22.21;42.26;95017.59;6188077;28;109668;-62
2023/10/24 12:58:30;;;;;;;7.20;4.10;;;;;;;22.21;42.44;95013.03;6209758;28;109327;-62
2023/10/24 13:01:34;;;;;;;6.93;3.70;;;;;;;22.21;41.93;95009.59;6195773;28;108927;-61
2023/10/24 13:04:37;;;;;;;8.00;3.95;;;;;;;22.20;42.42;95013.34;6187424;28;109026;-61
2023/10/24 13:07:42;;;;;;;5.82;3.45;;;;;;;22.20;42.10;95002.69;6187679;28;109730;-62
2023/10/24 13:10:47;;;;;;;7.00;3.90;;;;;;;22.18;42.31;94997.66;6181807;28;109046;-62
2023/10/24 13:13:50;;;;;;;7.65;3.72;;;;;;;22.19;42.60;94993.13;6182216;28;108969;-63
2023/10/24 13:16:56;;;;;;;6.53;3.45;;;;;;;22.18;42.22;94987.00;6187382;28;109154;-62
2023/10/24 13:20:16;;;;;;;8.10;4.00;;;;;;;22.17;42.42;94974.75;6187398;28;109044;-61
2023/10/24 13:23:19;;;;;;;7.30;3.70;;;;;;;22.16;42.56;94983.06;6195741;28;109111;-62
2023/10/24 13:26:24;;;;;;;7.40;3.60;;;;;;;22.16;42.58;94983.84;6211486;28;109045;-61
2023/10/24 13:29:27;;;;;;;5.60;3.70;;;;;;;22.16;42.44;94980.38;6212326;28;110093;-71
2023/10/24 13:32:30;;;;;;;6.18;3.25;;;;;;;22.11;42.33;94976.78;6199993;28;109205;-61
2023/10/24 13:35:34;;;;;;;6.15;3.50;;;;;;;22.10;42.54;94961.09;6176428;28;109660;-61
2023/10/24 13:38:40;;;;;;;6.70;3.80;;;;;;;22.10;42.09;94961.88;6204128;28;109093;-62
2023/10/24 13:41:44;;;;;;;6.70;3.50;;;;;;;22.10;42.21;94953.88;6211966;28;109689;-61
2023/10/24 13:44:48;;;;;;;6.10;3.60;;;;;;;22.10;42.28;94955.75;6206477;28;110568;-61
2023/10/24 13:47:51;;;;;;;7.00;3.40;;;;;;;22.10;42.02;94961.88;6192403;28;109073;-61
2023/10/24 13:50:54;;;;;;;6.25;3.40;;;;;;;22.09;41.85;94954.97;6186876;28;109297;-62
2023/10/24 13:53:57;;;;;;;6.85;3.50;;;;;;;22.09;42.04;94946.97;6186810;28;109046;-62
2023/10/24 13:57:02;;;;;;;6.85;3.75;;;;;;;22.09;42.48;94938.19;6175882;28;110013;-62
2023/10/24 14:00:09;;;;;;;7.40;3.30;;;;;;;22.08;42.31;94932.09;6187143;28;109111;-62
2023/10/24 14:03:12;;;;;;;8.52;3.40;;;;;;;22.08;42.47;94926.75;6201968;28;109441;-62
2023/10/24 14:06:15;;;;;;;7.30;3.50;;;;;;;22.08;42.48;94931.31;6211527;28;109012;-62
2023/10/24 14:09:18;;;;;;;7.28;3.40;;;;;;;22.06;42.07;94923.63;6176707;28;110107;-62